Time;durP1;ratioP1;P1;durP2;ratioP2;P2;SDS_P1;SDS_P2;PMS_P1;PMS_P2;Temp;Humidity;BMP_temperature;BMP_pressure;BME280_temperature;BME280_humidity;BME280_pressure;Samples;Min_cycle;Max_cycle;Signal;HPM_P1;HPM_P2
2023/02/02 00:01:51;;;;;;;0.00;0.00;;;;;;;7.37;59.82;99666.47;4456495;32;33631;-89
2023/02/02 00:04:22;;;;;;;0.00;0.00;;;;;;;7.04;61.02;99665.78;4450500;32;34034;-89
2023/02/02 00:06:50;;;;;;;0.75;0.65;;;;;;;7.17;60.66;99661.88;4453783;32;33882;-89
2023/02/02 00:09:23;;;;;;;0.00;0.00;;;;;;;7.64;58.58;99662.06;4451665;32;31816;-89
2023/02/02 00:11:54;;;;;;;0.00;0.00;;;;;;;7.36;58.94;99664.75;4426289;32;32557;-89
2023/02/02 00:14:23;;;;;;;0.00;0.00;;;;;;;7.79;57.64;99672.06;4439650;32;32737;-90
2023/02/02 00:17:03;;;;;;;0.00;0.00;;;;;;;7.15;58.38;99659.28;4423806;32;1293975;-89
2023/02/02 00:19:33;;;;;;;0.13;0.13;;;;;;;7.36;58.86;99668.25;4447483;32;32222;-89
2023/02/02 00:22:01;;;;;;;0.00;0.00;;;;;;;7.60;57.94;99671.84;4459738;32;33538;-89
2023/02/02 00:24:29;;;;;;;0.00;0.00;;;;;;;7.37;57.43;99659.44;4458845;32;34216;-89
2023/02/02 00:26:59;;;;;;;0.00;0.00;;;;;;;7.27;57.35;99641.44;4460871;32;33249;-89
2023/02/02 00:29:30;;;;;;;0.28;0.28;;;;;;;7.53;57.58;99637.91;4445079;32;33339;-88
2023/02/02 00:31:59;;;;;;;0.00;0.00;;;;;;;7.89;55.96;99639.28;4436245;32;33285;-88
2023/02/02 00:34:28;;;;;;;0.00;0.00;;;;;;;7.74;56.05;99633.69;4434551;32;31543;-88
2023/02/02 00:36:56;;;;;;;0.00;0.00;;;;;;;7.78;54.85;99630.03;4447800;32;34164;-89
2023/02/02 00:39:25;;;;;;;0.00;0.00;;;;;;;7.71;55.44;99626.78;4421836;32;33124;-89
2023/02/02 00:41:54;;;;;;;0.00;0.00;;;;;;;7.67;55.61;99627.78;4433834;32;32925;-91
2023/02/02 00:47:08;;;;;;;0.15;0.15;;;;;;;7.69;54.71;99631.22;4447649;32;34181;-88
2023/02/02 00:49:36;;;;;;;0.00;0.00;;;;;;;7.77;54.46;99636.22;4438233;32;32844;-88
2023/02/02 00:52:06;;;;;;;0.00;0.00;;;;;;;7.73;54.79;99659.09;4447445;32;34674;-88
2023/02/02 00:54:34;;;;;;;0.00;0.00;;;;;;;7.88;54.45;99663.88;4445770;32;32670;-89
2023/02/02 00:57:03;;;;;;;0.62;0.62;;;;;;;7.84;54.68;99659.63;4434883;32;33325;-89
2023/02/02 00:59:33;;;;;;;0.00;0.00;;;;;;;7.46;56.02;99662.69;4433626;32;32043;-90
2023/02/02 01:02:01;;;;;;;0.00;0.00;;;;;;;7.38;56.77;99682.19;4432889;32;33520;-89
2023/02/02 01:04:29;;;;;;;0.00;0.00;;;;;;;7.14;57.77;99682.97;4432842;32;32327;-89
2023/02/02 01:06:58;;;;;;;0.00;0.00;;;;;;;7.04;57.56;99682.41;4445020;32;33910;-89
2023/02/02 01:09:26;;;;;;;0.00;0.00;;;;;;;7.15;57.81;99682.91;4446796;32;35096;-89
2023/02/02 01:11:54;;;;;;;0.00;0.00;;;;;;;7.10;58.11;99683.97;4436155;32;32562;-89
2023/02/02 01:14:22;;;;;;;0.00;0.00;;;;;;;7.20;58.02;99685.38;4439751;32;32559;-88
2023/02/02 01:16:50;;;;;;;0.00;0.00;;;;;;;7.15;58.25;99689.94;4430180;32;32761;-88
2023/02/02 01:19:18;;;;;;;0.00;0.00;;;;;;;7.08;58.66;99685.78;4450514;32;32710;-88
2023/02/02 01:21:46;;;;;;;0.00;0.00;;;;;;;7.11;58.54;99675.19;4442267;32;33161;-88
2023/02/02 01:24:16;;;;;;;0.00;0.00;;;;;;;6.57;60.82;99687.31;4458032;32;32273;-87
2023/02/02 01:26:45;;;;;;;0.00;0.00;;;;;;;6.52;60.88;99694.47;4470617;32;33525;-88
2023/02/02 01:29:14;;;;;;;0.00;0.00;;;;;;;6.69;60.83;99688.69;4461644;32;34608;-88
2023/02/02 01:31:42;;;;;;;0.00;0.00;;;;;;;6.43;61.45;99697.34;4455574;32;33977;-87
2023/02/02 01:34:12;;;;;;;0.00;0.00;;;;;;;6.81;60.74;99695.38;4461865;32;33502;-88
2023/02/02 01:36:41;;;;;;;0.03;0.03;;;;;;;6.05;63.18;99698.41;4457902;32;33299;-87
2023/02/02 01:39:09;;;;;;;0.00;0.00;;;;;;;6.26;62.39;99700.41;4443768;32;33015;-87
2023/02/02 01:41:39;;;;;;;0.25;0.25;;;;;;;6.00;63.78;99710.78;4444019;32;32604;-88
2023/02/02 01:44:45;;;;;;;0.32;0.32;;;;;;;6.36;62.60;99707.16;4443613;32;32711;-87
2023/02/02 01:47:13;;;;;;;0.00;0.00;;;;;;;5.89;64.09;99706.66;4466164;32;33964;-88
2023/02/02 01:49:42;;;;;;;0.10;0.10;;;;;;;6.21;63.38;99683.97;4442446;32;33142;-88
2023/02/02 01:52:10;;;;;;;0.05;0.05;;;;;;;6.44;62.55;99667.56;4456131;32;33107;-87
2023/02/02 01:54:45;;;;;;;0.00;0.00;;;;;;;6.27;63.00;99678.56;4456584;32;32720;-89
2023/02/02 01:57:23;;;;;;;0.00;0.00;;;;;;;6.28;62.88;99680.28;4444276;32;33732;-89
2023/02/02 01:59:52;;;;;;;0.00;0.00;;;;;;;6.63;61.80;99683.66;4450099;32;33916;-88
2023/02/02 02:02:20;;;;;;;0.00;0.00;;;;;;;6.77;61.42;99668.34;4457236;32;33671;-88
2023/02/02 02:04:49;;;;;;;0.00;0.00;;;;;;;6.53;61.72;99656.81;4444813;32;32304;-88
2023/02/02 02:07:17;;;;;;;0.00;0.00;;;;;;;6.14;62.94;99662.31;4442942;32;32984;-87
2023/02/02 02:09:46;;;;;;;0.60;0.17;;;;;;;6.54;62.31;99640.16;4457488;32;33276;-87
2023/02/02 02:12:15;;;;;;;0.00;0.00;;;;;;;6.80;61.32;99646.41;4455395;32;33787;-87
2023/02/02 02:17:53;;;;;;;0.00;0.00;;;;;;;6.25;62.53;99638.41;4471754;32;34005;-87
2023/02/02 02:26:49;;;;;;;0.10;0.10;;;;;;;6.16;63.64;99641.28;4469834;32;32745;-88
2023/02/02 02:29:34;;;;;;;0.00;0.00;;;;;;;6.36;63.06;99630.22;4470853;32;33523;-88
2023/02/02 02:32:27;;;;;;;0.10;0.10;;;;;;;6.45;62.75;99634.34;4456152;32;33288;-88
2023/02/02 02:35:24;;;;;;;0.00;0.00;;;;;;;6.75;62.04;99659.69;4456486;32;32230;-88
2023/02/02 02:38:14;;;;;;;0.62;0.57;;;;;;;6.49;62.95;99652.56;4469438;32;33076;-86
2023/02/02 02:40:46;;;;;;;0.08;0.05;;;;;;;6.57;62.38;99660.22;4467822;32;33444;-88
2023/02/02 02:43:19;;;;;;;0.00;0.00;;;;;;;6.23;63.67;99657.72;4469111;32;33332;-87
2023/02/02 02:45:48;;;;;;;0.00;0.00;;;;;;;6.34;63.34;99663.50;4456834;32;32338;-87
2023/02/02 02:51:05;;;;;;;0.00;0.00;;;;;;;6.65;62.49;99658.25;4470101;32;34483;-88
2023/02/02 02:53:35;;;;;;;0.00;0.00;;;;;;;6.57;62.72;99652.34;4469313;32;33649;-88
2023/02/02 02:56:46;;;;;;;0.37;0.37;;;;;;;6.29;63.52;99670.66;4442987;32;33015;-89
2023/02/02 02:59:22;;;;;;;0.00;0.00;;;;;;;6.37;63.27;99663.44;4447393;32;32553;-86
2023/02/02 03:01:56;;;;;;;0.00;0.00;;;;;;;6.25;63.52;99656.75;4469909;32;33632;-86
2023/02/02 03:04:43;;;;;;;0.00;0.00;;;;;;;6.07;64.03;99658.13;4456792;32;33095;-87
2023/02/02 03:07:25;;;;;;;0.00;0.00;;;;;;;6.01;63.89;99654.81;4456626;32;33917;-87
2023/02/02 03:09:55;;;;;;;0.00;0.00;;;;;;;6.01;63.84;99660.06;4467287;32;34059;-87
2023/02/02 03:12:23;;;;;;;0.00;0.00;;;;;;;5.95;64.22;99647.12;4441364;32;33578;-87
2023/02/02 03:14:52;;;;;;;0.00;0.00;;;;;;;5.97;63.85;99645.31;4456689;32;33869;-86
2023/02/02 03:17:28;;;;;;;0.00;0.00;;;;;;;6.21;63.56;99649.87;4464789;32;33379;-86
2023/02/02 03:19:57;;;;;;;0.00;0.00;;;;;;;5.88;63.78;99656.88;4444816;32;32491;-86
2023/02/02 03:22:25;;;;;;;0.00;0.00;;;;;;;6.59;62.05;99659.25;4440771;32;33133;-86
2023/02/02 03:24:52;;;;;;;0.00;0.00;;;;;;;6.24;62.83;99665.53;4430217;32;32763;-87
2023/02/02 03:27:20;;;;;;;0.00;0.00;;;;;;;6.31;62.63;99674.94;4453468;32;32604;-87
2023/02/02 03:29:48;;;;;;;0.00;0.00;;;;;;;6.05;63.24;99683.53;4453695;32;34015;-87
2023/02/02 03:32:16;;;;;;;0.00;0.00;;;;;;;5.73;64.05;99678.25;4454075;32;33754;-88
2023/02/02 03:34:44;;;;;;;0.08;0.08;;;;;;;5.71;64.04;99678.28;4441069;32;34067;-87
2023/02/02 03:37:12;;;;;;;0.00;0.00;;;;;;;6.25;62.64;99672.50;4441105;32;32688;-89
2023/02/02 03:39:40;;;;;;;0.00;0.00;;;;;;;6.55;61.42;99680.37;4441326;32;33284;-91
2023/02/02 03:42:08;;;;;;;0.00;0.00;;;;;;;5.74;63.20;99678.19;4438963;32;33833;-90
2023/02/02 03:44:37;;;;;;;0.00;0.00;;;;;;;6.11;62.59;99688.59;4453663;32;34353;-89
2023/02/02 03:47:06;;;;;;;0.00;0.00;;;;;;;6.26;62.22;99686.44;4440969;32;33137;-89
2023/02/02 03:49:34;;;;;;;0.00;0.00;;;;;;;5.80;63.16;99692.91;4428273;32;32185;-89
2023/02/02 03:52:03;;;;;;;0.08;0.08;;;;;;;6.07;62.02;99686.97;4440144;32;32785;-90
2023/02/02 03:54:34;;;;;;;0.00;0.00;;;;;;;6.03;62.33;99694.94;4452540;32;33890;-87
2023/02/02 03:57:03;;;;;;;0.00;0.00;;;;;;;6.04;62.33;99688.81;4452444;32;33647;-87
2023/02/02 03:59:31;;;;;;;0.00;0.00;;;;;;;6.23;61.24;99679.56;4437140;32;33193;-87
2023/02/02 04:01:59;;;;;;;0.03;0.03;;;;;;;6.06;61.83;99674.75;4444989;32;33884;-88
2023/02/02 04:04:35;;;;;;;0.00;0.00;;;;;;;5.94;62.05;99666.37;4453587;32;34023;-88
2023/02/02 04:07:02;;;;;;;0.00;0.00;;;;;;;5.50;63.46;99677.06;4428007;32;33340;-88
2023/02/02 04:09:30;;;;;;;0.15;0.10;;;;;;;5.33;63.71;99674.03;4441136;32;33011;-88
2023/02/02 04:11:58;;;;;;;0.00;0.00;;;;;;;5.73;63.04;99671.25;4431928;32;31752;-89
2023/02/02 04:14:27;;;;;;;0.00;0.00;;;;;;;5.88;62.27;99660.34;4439533;32;34748;-88
2023/02/02 04:16:55;;;;;;;0.00;0.00;;;;;;;5.79;62.46;99665.87;4439571;32;33618;-88
2023/02/02 04:19:26;;;;;;;0.00;0.00;;;;;;;5.43;63.43;99666.81;4429797;32;32376;-88
2023/02/02 04:21:55;;;;;;;0.00;0.00;;;;;;;5.92;61.73;99655.94;4441605;32;33887;-88
2023/02/02 04:24:23;;;;;;;0.00;0.00;;;;;;;6.05;61.34;99659.09;4429146;32;34136;-88
2023/02/02 04:26:53;;;;;;;0.20;0.20;;;;;;;5.87;61.78;99663.88;4452960;32;33882;-88
2023/02/02 04:29:21;;;;;;;0.00;0.00;;;;;;;5.39;63.31;99666.88;4453483;32;32765;-88
2023/02/02 04:31:50;;;;;;;0.00;0.00;;;;;;;5.63;62.53;99664.53;4438058;32;32066;-88
2023/02/02 04:34:19;;;;;;;0.00;0.00;;;;;;;5.20;63.50;99664.72;4433121;32;33826;-90
2023/02/02 04:36:47;;;;;;;0.80;0.45;;;;;;;5.33;63.26;99661.78;4446147;32;32977;-89
2023/02/02 04:39:15;;;;;;;0.08;0.08;;;;;;;5.33;63.50;99661.78;4439515;32;32425;-90
2023/02/02 04:41:44;;;;;;;0.10;0.10;;;;;;;5.20;63.52;99649.03;4430138;32;33420;-90
2023/02/02 04:44:14;;;;;;;0.20;0.20;;;;;;;5.34;62.97;99641.69;4433914;32;33515;-90
2023/02/02 04:46:43;;;;;;;0.52;0.52;;;;;;;5.36;63.24;99646.00;4447443;32;33895;-89
2023/02/02 04:49:11;;;;;;;0.00;0.00;;;;;;;5.37;62.99;99641.63;4436152;32;32228;-90
2023/02/02 04:51:41;;;;;;;0.28;0.28;;;;;;;5.30;63.20;99640.06;4460446;32;33455;-89
2023/02/02 04:54:10;;;;;;;0.00;0.00;;;;;;;4.72;64.99;99636.19;4442593;32;33188;-90
2023/02/02 04:56:44;;;;;;;0.00;0.00;;;;;;;4.71;64.89;99624.88;4446822;32;34245;-90
2023/02/02 04:59:16;;;;;;;0.10;0.10;;;;;;;5.20;63.65;99621.09;4436069;32;33522;-88
2023/02/02 05:01:47;;;;;;;0.00;0.00;;;;;;;4.84;64.74;99628.06;4450960;32;32633;-86
2023/02/02 05:06:54;;;;;;;0.00;0.00;;;;;;;5.01;64.01;99622.44;4449688;32;33222;-86
2023/02/02 05:09:23;;;;;;;0.00;0.00;;;;;;;4.72;65.38;99631.81;4447474;32;32073;-88
2023/02/02 05:11:51;;;;;;;0.00;0.00;;;;;;;4.68;65.17;99630.16;4463653;32;34501;-89
2023/02/02 05:14:20;;;;;;;0.00;0.00;;;;;;;3.99;67.40;99630.78;4445261;32;33292;-89
2023/02/02 05:16:49;;;;;;;0.00;0.00;;;;;;;4.41;66.49;99625.53;4451811;32;34887;-88
2023/02/02 05:19:19;;;;;;;2.08;1.90;;;;;;;4.53;65.78;99625.28;4451802;31;32961;-89
2023/02/02 05:21:53;;;;;;;0.00;0.00;;;;;;;4.31;66.35;99620.50;4459049;31;33050;-88
2023/02/02 05:24:24;;;;;;;0.30;0.30;;;;;;;4.47;66.23;99620.19;4470685;31;34746;-89
2023/02/02 05:26:57;;;;;;;0.00;0.00;;;;;;;4.44;66.29;99625.47;4471337;31;33397;-88
2023/02/02 05:29:27;;;;;;;0.00;0.00;;;;;;;4.31;66.66;99633.56;4471471;31;33127;-88
2023/02/02 05:31:56;;;;;;;0.00;0.00;;;;;;;3.90;67.85;99636.19;4457392;31;32278;-87
2023/02/02 05:34:25;;;;;;;0.00;0.00;;;;;;;4.05;67.46;99628.03;4459159;31;33489;-88
2023/02/02 05:36:55;;;;;;;0.00;0.00;;;;;;;4.16;66.95;99641.72;4470785;31;33047;-88
2023/02/02 05:39:26;;;;;;;0.22;0.22;;;;;;;3.69;68.25;99653.09;4458212;31;31922;-89
2023/02/02 05:41:56;;;;;;;0.00;0.00;;;;;;;4.31;66.51;99641.41;4452249;31;34537;-88
2023/02/02 05:44:26;;;;;;;0.00;0.00;;;;;;;4.25;66.57;99656.38;4481686;31;33578;-87
2023/02/02 05:46:57;;;;;;;0.00;0.00;;;;;;;3.91;67.57;99646.59;4469499;31;33520;-90
2023/02/02 05:49:28;;;;;;;0.00;0.00;;;;;;;4.25;66.33;99652.00;4467035;32;32636;-89
2023/02/02 05:52:04;;;;;;;0.00;0.00;;;;;;;3.89;66.98;99661.41;4468446;31;35281;-88
2023/02/02 05:54:36;;;;;;;0.75;0.75;;;;;;;4.01;67.36;99658.59;4468198;31;31766;-89
2023/02/02 05:57:05;;;;;;;0.40;0.40;;;;;;;3.91;67.62;99661.41;4455921;31;35106;-89
2023/02/02 05:59:34;;;;;;;0.00;0.00;;;;;;;3.85;67.75;99667.63;4452315;31;32207;-89
2023/02/02 06:02:06;;;;;;;0.00;0.00;;;;;;;4.15;66.50;99660.94;4450932;31;34531;-88
2023/02/02 06:04:34;;;;;;;0.00;0.00;;;;;;;4.06;66.88;99655.88;4462319;31;34673;-88
2023/02/02 06:07:03;;;;;;;0.00;0.00;;;;;;;4.30;65.93;99659.75;4480508;31;33687;-85
2023/02/02 06:09:33;;;;;;;0.00;0.00;;;;;;;4.10;66.62;99647.94;4465764;31;33983;-89
2023/02/02 06:12:04;;;;;;;0.00;0.00;;;;;;;4.05;67.01;99668.09;4452878;31;33372;-88
2023/02/02 06:14:35;;;;;;;0.00;0.00;;;;;;;4.33;65.94;99667.53;4455889;31;33169;-87
2023/02/02 06:17:05;;;;;;;0.00;0.00;;;;;;;4.22;66.20;99683.41;4465841;31;33777;-89
2023/02/02 06:19:43;;;;;;;0.00;0.00;;;;;;;4.29;66.01;99694.63;4468442;31;35047;-87
2023/02/02 06:22:11;;;;;;;0.00;0.00;;;;;;;4.51;65.70;99710.72;4453333;31;32261;-87
2023/02/02 06:24:43;;;;;;;0.00;0.00;;;;;;;4.98;63.70;99712.31;4468938;31;34039;-88
2023/02/02 06:27:12;;;;;;;0.47;0.37;;;;;;;4.65;64.67;99718.28;4467610;31;32589;-87
2023/02/02 06:29:42;;;;;;;0.00;0.00;;;;;;;4.75;63.99;99715.47;4479927;31;31961;-87
2023/02/02 06:32:14;;;;;;;0.00;0.00;;;;;;;4.30;65.68;99723.34;4456455;31;33752;-87
2023/02/02 06:34:47;;;;;;;0.65;0.65;;;;;;;4.79;64.23;99724.94;4466098;31;33891;-88
2023/02/02 06:37:17;;;;;;;0.00;0.00;;;;;;;5.07;63.33;99729.59;4458768;31;32842;-88
2023/02/02 06:39:45;;;;;;;0.00;0.00;;;;;;;4.71;64.16;99724.28;4468695;31;32755;-88
2023/02/02 06:42:16;;;;;;;0.13;0.13;;;;;;;4.64;64.58;99735.75;4459280;31;32765;-87
2023/02/02 06:44:48;;;;;;;0.37;0.30;;;;;;;4.73;64.46;99730.31;4458995;31;33113;-87
2023/02/02 06:47:17;;;;;;;0.00;0.00;;;;;;;4.96;63.47;99723.75;4485438;31;33084;-86
2023/02/02 06:49:50;;;;;;;0.00;0.00;;;;;;;5.24;62.65;99730.06;4485508;31;33137;-87
2023/02/02 06:52:19;;;;;;;0.00;0.00;;;;;;;5.44;61.87;99724.34;4456320;31;32141;-87
2023/02/02 06:54:50;;;;;;;2.25;1.75;;;;;;;5.27;62.37;99737.88;4465643;31;33779;-87
2023/02/02 06:57:19;;;;;;;0.00;0.00;;;;;;;5.39;61.96;99747.19;4478960;31;33725;-87
2023/02/02 06:59:54;;;;;;;0.00;0.00;;;;;;;5.10;63.18;99760.94;4469179;31;32429;-87
2023/02/02 07:02:28;;;;;;;0.00;0.00;;;;;;;5.71;61.22;99759.50;4469899;31;32839;-87
2023/02/02 07:04:57;;;;;;;0.00;0.00;;;;;;;5.33;61.93;99766.50;4454092;31;33000;-87
2023/02/02 07:07:25;;;;;;;0.00;0.00;;;;;;;5.59;61.68;99765.03;4453989;31;32967;-87
2023/02/02 07:09:54;;;;;;;0.10;0.10;;;;;;;5.64;61.38;99765.78;4478765;31;32736;-87
2023/02/02 07:12:35;;;;;;;0.00;0.00;;;;;;;5.57;61.57;99753.75;4480210;31;33656;-87
2023/02/02 07:15:07;;;;;;;0.00;0.00;;;;;;;5.54;61.33;99753.81;4467162;31;33232;-87
2023/02/02 07:17:47;;;;;;;2.17;1.20;;;;;;;5.22;62.30;99758.06;4476283;31;33175;-87
2023/02/02 07:20:17;;;;;;;0.20;0.20;;;;;;;5.34;62.20;99746.44;4453239;32;31320;-87
2023/02/02 07:22:49;;;;;;;0.00;0.00;;;;;;;5.20;62.15;99749.34;4437752;32;32777;-88
2023/02/02 07:25:19;;;;;;;0.13;0.10;;;;;;;5.30;61.45;99750.88;4443001;32;33653;-88
2023/02/02 07:27:54;;;;;;;0.00;0.00;;;;;;;5.48;61.13;99739.09;4448490;32;32664;-85
2023/02/02 07:30:28;;;;;;;0.00;0.00;;;;;;;5.40;61.80;99741.91;4434346;32;33353;-86
2023/02/02 07:32:58;;;;;;;0.00;0.00;;;;;;;5.24;61.40;99740.53;4432456;32;34068;-86
2023/02/02 07:35:34;;;;;;;0.00;0.00;;;;;;;4.97;62.33;99738.53;4451915;32;31938;-86
2023/02/02 07:38:04;;;;;;;0.00;0.00;;;;;;;5.33;61.59;99742.09;4437188;32;32918;-86
2023/02/02 07:40:33;;;;;;;0.00;0.00;;;;;;;5.48;61.01;99738.25;4445838;32;35086;-86
2023/02/02 07:43:08;;;;;;;0.20;0.20;;;;;;;5.21;61.59;99747.59;4425011;32;33734;-87
2023/02/02 07:45:36;;;;;;;0.10;0.10;;;;;;;5.01;62.22;99748.91;4445975;32;33122;-85
2023/02/02 07:48:09;;;;;;;0.00;0.00;;;;;;;5.52;61.20;99734.66;4453251;32;34170;-86
2023/02/02 07:50:38;;;;;;;0.00;0.00;;;;;;;5.58;60.61;99751.06;4428760;32;33801;-86
2023/02/02 07:53:08;;;;;;;0.00;0.00;;;;;;;5.51;60.50;99764.37;4456252;32;32526;-85
2023/02/02 07:55:42;;;;;;;0.00;0.00;;;;;;;5.86;60.12;99761.75;4451606;32;33811;-86
2023/02/02 07:58:14;;;;;;;0.00;0.00;;;;;;;5.82;60.03;99765.34;4453445;32;33754;-86
2023/02/02 08:00:44;;;;;;;0.00;0.00;;;;;;;6.02;59.21;99766.63;4441531;32;33468;-86
2023/02/02 08:03:13;;;;;;;0.00;0.00;;;;;;;5.97;59.19;99776.34;4447396;32;33117;-86
2023/02/02 08:05:44;;;;;;;0.30;0.30;;;;;;;6.33;58.69;99782.44;4429056;32;33419;-86
2023/02/02 08:08:14;;;;;;;0.13;0.13;;;;;;;6.38;58.88;99778.78;4441487;32;34815;-86
2023/02/02 08:10:50;;;;;;;0.00;0.00;;;;;;;5.79;59.17;99781.16;4429978;32;33633;-86
2023/02/02 08:13:24;;;;;;;0.03;0.00;;;;;;;6.14;58.97;99787.28;4429069;32;33169;-86
2023/02/02 08:15:57;;;;;;;0.00;0.00;;;;;;;6.24;58.21;99782.66;4442197;32;33360;-86
2023/02/02 08:18:29;;;;;;;1.45;0.95;;;;;;;6.39;58.04;99787.50;4453323;32;33783;-86
2023/02/02 08:21:00;;;;;;;0.00;0.00;;;;;;;6.83;56.54;99785.41;4457041;32;32750;-85
2023/02/02 08:23:32;;;;;;;0.00;0.00;;;;;;;6.84;57.14;99795.00;4457479;32;34253;-86
2023/02/02 08:28:58;;;;;;;0.00;0.00;;;;;;;6.98;56.29;99789.34;4454156;32;33105;-85
2023/02/02 08:31:35;;;;;;;0.00;0.00;;;;;;;6.95;56.91;99792.06;4444442;32;31796;-85
2023/02/02 08:34:09;;;;;;;0.00;0.00;;;;;;;6.66;56.52;99788.50;4441068;32;31152;-86
2023/02/02 08:36:47;;;;;;;0.00;0.00;;;;;;;6.89;55.52;99799.22;4464560;32;33707;-86
2023/02/02 08:39:16;;;;;;;0.00;0.00;;;;;;;7.10;54.49;99802.13;4439589;32;32593;-86
2023/02/02 08:41:49;;;;;;;0.25;0.25;;;;;;;7.19;54.38;99793.97;4464551;32;31711;-86
2023/02/02 08:44:33;;;;;;;0.00;0.00;;;;;;;7.28;53.75;99780.56;4448706;31;33990;-86
2023/02/02 08:47:21;;;;;;;0.00;0.00;;;;;;;7.25;53.69;99774.53;4449464;32;32677;-87
2023/02/02 08:49:51;;;;;;;0.00;0.00;;;;;;;7.14;52.92;99772.25;4456653;31;32840;-86
2023/02/02 08:52:20;;;;;;;0.00;0.00;;;;;;;7.38;52.48;99775.88;4465468;31;32329;-86
2023/02/02 08:54:55;;;;;;;0.40;0.40;;;;;;;7.47;52.73;99772.13;4477106;31;32908;-86
2023/02/02 09:02:38;;;;;;;0.00;0.00;;;;;;;7.85;51.76;99784.03;4474899;31;32739;-86
2023/02/02 09:05:07;;;;;;;0.00;0.00;;;;;;;7.92;51.71;99783.75;4465379;31;34521;-89
2023/02/02 09:07:45;;;;;;;0.00;0.00;;;;;;;7.86;52.38;99778.72;4454405;31;34104;-87
2023/02/02 09:10:22;;;;;;;0.00;0.00;;;;;;;7.77;52.26;99792.16;4466485;31;34998;-84
2023/02/02 09:12:54;;;;;;;1.92;1.45;;;;;;;7.63;51.75;99787.34;4478306;31;34093;-85
2023/02/02 09:15:23;;;;;;;0.00;0.00;;;;;;;7.92;51.82;99778.50;4464080;31;32501;-85
2023/02/02 09:17:53;;;;;;;0.00;0.00;;;;;;;7.66;51.91;99791.66;4463546;31;34425;-86
2023/02/02 09:20:24;;;;;;;0.00;0.00;;;;;;;8.22;51.38;99773.13;4462947;31;34141;-87
2023/02/02 09:22:57;;;;;;;0.00;0.00;;;;;;;8.41;49.11;99789.16;4464779;32;33209;-88
2023/02/02 09:25:27;;;;;;;0.10;0.10;;;;;;;8.54;48.73;99779.06;4453240;31;32516;-88
2023/02/02 09:27:55;;;;;;;0.10;0.10;;;;;;;8.00;50.07;99790.53;4464174;31;33806;-88
2023/02/02 09:30:25;;;;;;;0.00;0.00;;;;;;;8.33;49.54;99778.00;4461951;31;33581;-87
2023/02/02 09:32:54;;;;;;;0.00;0.00;;;;;;;8.44;49.04;99792.53;4466238;31;31695;-87
2023/02/02 09:35:28;;;;;;;0.10;0.10;;;;;;;8.40;50.04;99788.31;4462714;31;33659;-88
2023/02/02 09:37:57;;;;;;;0.00;0.00;;;;;;;8.52;49.00;99779.13;4457154;31;34207;-87
2023/02/02 09:40:29;;;;;;;0.00;0.00;;;;;;;8.49;48.45;99776.59;4470135;31;33080;-87
2023/02/02 09:43:38;;;;;;;0.00;0.00;;;;;;;8.96;47.56;99780.13;4473337;31;32205;-87
2023/02/02 09:46:42;;;;;;;0.00;0.00;;;;;;;8.89;48.20;99778.66;4470699;32;34612;-88
2023/02/02 09:49:22;;;;;;;0.20;0.20;;;;;;;8.42;48.48;99791.75;4470538;32;33579;-87
2023/02/02 09:51:55;;;;;;;0.00;0.00;;;;;;;8.85;48.02;99806.00;4442487;32;32646;-89
2023/02/02 09:54:36;;;;;;;0.00;0.00;;;;;;;8.71;48.99;99800.38;4458155;32;33748;-87
2023/02/02 09:57:23;;;;;;;0.00;0.00;;;;;;;8.91;47.80;99803.13;4472405;32;32891;-87
2023/02/02 09:59:54;;;;;;;0.00;0.00;;;;;;;9.12;48.25;99812.03;4457844;32;33790;-87
2023/02/02 10:02:22;;;;;;;0.00;0.00;;;;;;;9.05;47.75;99814.94;4445172;32;33957;-87
2023/02/02 10:04:54;;;;;;;0.00;0.00;;;;;;;9.38;46.91;99813.66;4457775;32;33706;-87
2023/02/02 10:07:34;;;;;;;1.45;0.37;;;;;;;9.12;46.46;99822.56;4466800;32;34505;-87
2023/02/02 10:10:28;;;;;;;0.10;0.10;;;;;;;9.00;48.28;99816.88;4483107;32;33878;-87
2023/02/02 10:13:42;;;;;;;0.00;0.00;;;;;;;8.86;48.85;99833.19;4463060;31;33088;-87
2023/02/02 10:16:20;;;;;;;0.00;0.00;;;;;;;8.70;47.37;99840.78;4440797;32;33397;-87
2023/02/02 10:19:05;;;;;;;0.00;0.00;;;;;;;9.01;47.88;99845.78;4483697;32;34526;-88
2023/02/02 10:22:03;;;;;;;0.10;0.10;;;;;;;9.06;47.03;99837.72;4484602;31;33395;-87
2023/02/02 10:24:34;;;;;;;0.00;0.00;;;;;;;9.06;48.65;99845.62;4471885;31;34004;-87
2023/02/02 10:27:09;;;;;;;0.00;0.00;;;;;;;9.19;46.96;99844.25;4458919;31;32643;-87
2023/02/02 10:29:46;;;;;;;0.00;0.00;;;;;;;9.24;46.80;99839.66;4484456;31;33804;-87
2023/02/02 10:35:28;;;;;;;4.28;0.85;;;;;;;9.21;47.01;99834.53;4471337;31;33205;-87
2023/02/02 10:38:09;;;;;;;0.75;0.32;;;;;;;9.11;47.26;99830.50;4467266;31;33640;-87
2023/02/02 10:40:54;;;;;;;0.00;0.00;;;;;;;9.42;47.09;99831.06;4484205;31;33021;-87
2023/02/02 10:43:44;;;;;;;0.25;0.25;;;;;;;9.15;47.87;99832.09;4472397;31;33464;-87
2023/02/02 10:46:24;;;;;;;0.00;0.00;;;;;;;9.25;48.08;99838.75;4485607;31;34133;-87
2023/02/02 10:49:26;;;;;;;0.00;0.00;;;;;;;9.16;47.78;99842.63;4484500;31;32274;-87
2023/02/02 10:52:09;;;;;;;0.80;0.80;;;;;;;9.33;46.90;99836.69;4483977;31;33558;-87
2023/02/02 10:54:57;;;;;;;0.00;0.00;;;;;;;9.23;47.90;99835.31;4484070;31;33519;-87
2023/02/02 10:57:44;;;;;;;1.10;0.80;;;;;;;9.65;47.37;99831.97;4472965;31;33330;-87
2023/02/02 11:00:33;;;;;;;;;;;;;;;9.61;47.74;99835.63;4452217;31;33631;-87
2023/02/02 11:03:03;;;;;;;0.10;0.10;;;;;;;9.92;46.15;99828.22;4480964;31;33664;-87
2023/02/02 11:08:47;;;;;;;0.10;0.10;;;;;;;10.21;45.30;99826.19;4457368;31;32427;-89
2023/02/02 11:11:23;;;;;;;0.62;0.62;;;;;;;9.36;45.72;99838.38;4469195;31;35816;-87
2023/02/02 11:14:08;;;;;;;0.13;0.13;;;;;;;9.05;48.21;99834.22;4467895;31;33398;-87
2023/02/02 11:16:39;;;;;;;0.10;0.10;;;;;;;9.59;46.16;99832.19;4469323;31;33079;-87
2023/02/02 11:19:19;;;;;;;0.00;0.00;;;;;;;9.40;46.87;99837.31;4468676;31;32543;-87
2023/02/02 11:22:01;;;;;;;0.13;0.13;;;;;;;9.24;47.44;99827.34;4482016;31;34088;-86
2023/02/02 11:27:40;;;;;;;0.00;0.00;;;;;;;9.49;46.79;99831.69;4468488;31;33354;-87
2023/02/02 11:30:35;;;;;;;0.00;0.00;;;;;;;9.42;46.85;99830.22;4480569;31;33609;-87
2023/02/02 11:33:19;;;;;;;0.00;0.00;;;;;;;9.37;47.84;99843.56;4468112;31;33724;-87
2023/02/02 11:35:58;;;;;;;0.00;0.00;;;;;;;9.33;46.86;99826.16;4467365;31;33260;-87
2023/02/02 11:38:38;;;;;;;0.00;0.00;;;;;;;9.21;47.23;99834.53;4468463;31;32609;-87
2023/02/02 11:43:52;;;;;;;0.20;0.20;;;;;;;8.86;47.78;99820.88;4470173;31;33057;-87
2023/02/02 11:46:29;;;;;;;0.00;0.00;;;;;;;9.08;46.91;99828.00;4479499;31;33561;-87
2023/02/02 11:51:38;;;;;;;0.00;0.00;;;;;;;9.07;46.83;99813.97;4479468;31;33550;-86
2023/02/02 11:54:20;;;;;;;1.77;1.10;;;;;;;9.46;45.71;99816.88;4481512;31;34038;-86
2023/02/02 11:56:55;;;;;;;0.00;0.00;;;;;;;8.78;47.34;99822.91;4468527;31;32523;-87
2023/02/02 11:59:33;;;;;;;0.00;0.00;;;;;;;8.82;48.64;99819.25;4455912;31;34337;-87
2023/02/02 12:02:27;;;;;;;0.40;0.28;;;;;;;8.84;47.94;99827.97;4480576;31;33634;-87
2023/02/02 12:05:09;;;;;;;0.40;0.40;;;;;;;8.98;47.53;99820.44;4456031;31;32883;-86
2023/02/02 12:07:38;;;;;;;0.00;0.00;;;;;;;9.10;47.81;99823.53;4484420;31;33757;-87
2023/02/02 12:10:13;;;;;;;0.00;0.00;;;;;;;8.94;48.10;99823.25;4459243;31;33836;-88
2023/02/02 12:19:19;;;;;;;0.25;0.25;;;;;;;9.86;46.29;99815.28;4460481;31;32895;-87
2023/02/02 12:22:17;;;;;;;0.62;0.62;;;;;;;9.37;46.08;99811.94;4469552;32;33381;-87
2023/02/02 12:25:06;;;;;;;0.17;0.10;;;;;;;9.71;45.52;99806.19;4468379;32;33573;-88
2023/02/02 12:27:44;;;;;;;0.22;0.22;;;;;;;9.63;46.47;99812.69;4480099;31;33440;-86
2023/02/02 12:33:32;;;;;;;0.20;0.20;;;;;;;9.87;45.30;99816.13;4477447;32;33954;-87
2023/02/02 12:39:54;;;;;;;0.00;0.00;;;;;;;9.88;45.37;99812.59;4474412;32;33168;-86
2023/02/02 12:42:46;;;;;;;0.00;0.00;;;;;;;10.09;45.05;99816.13;4478960;32;34180;-86
2023/02/02 12:45:36;;;;;;;0.00;0.00;;;;;;;9.75;45.46;99806.94;4452141;32;34189;-87
2023/02/02 12:48:36;;;;;;;0.10;0.10;;;;;;;9.53;46.01;99811.34;4465712;32;33166;-85
2023/02/02 12:51:37;;;;;;;0.00;0.00;;;;;;;9.58;46.00;99820.78;4447872;32;32198;-86
2023/02/02 12:54:29;;;;;;;0.00;0.00;;;;;;;9.40;46.58;99811.84;4466905;32;33984;-86
2023/02/02 12:57:39;;;;;;;0.25;0.25;;;;;;;9.52;47.62;99814.91;4470204;32;33404;-86
2023/02/02 13:00:33;;;;;;;0.00;0.00;;;;;;;9.71;46.74;99811.47;4468929;32;33458;-88
2023/02/02 13:06:47;;;;;;;0.00;0.00;;;;;;;9.65;46.09;99813.50;4479999;32;34213;-86
2023/02/02 13:10:01;;;;;;;0.00;0.00;;;;;;;9.66;45.95;99818.72;4454302;32;34562;-86
2023/02/02 13:12:42;;;;;;;0.00;0.00;;;;;;;9.67;46.82;99819.56;4453695;32;34501;-86